createdAt,value
2017-03-31T00:00:38.026Z,0
2017-03-31T00:02:00.483Z,0
2017-03-31T00:03:21.981Z,0
2017-03-31T00:04:44.422Z,0
2017-03-31T00:06:05.967Z,0
2017-03-31T00:07:27.477Z,0
2017-03-31T00:08:49.676Z,0
2017-03-31T00:10:11.533Z,0
2017-03-31T00:11:33.767Z,0
2017-03-31T00:12:55.607Z,0
2017-03-31T00:14:17.437Z,0
2017-03-31T00:15:39.985Z,0
2017-03-31T00:17:02.119Z,0
2017-03-31T00:18:23.974Z,0
2017-03-31T00:19:45.794Z,0
2017-03-31T00:21:08.230Z,0
2017-03-31T00:22:30.096Z,0
2017-03-31T00:23:51.926Z,0
2017-03-31T00:25:13.799Z,0
2017-03-31T00:26:36.555Z,0
2017-03-31T00:27:58.739Z,0
2017-03-31T00:29:20.574Z,0
2017-03-31T00:30:42.374Z,0
2017-03-31T00:32:05.483Z,0
2017-03-31T00:33:27.315Z,0
2017-03-31T00:34:48.507Z,0
2017-03-31T00:36:10.976Z,0
2017-03-31T00:37:33.367Z,0
2017-03-31T00:38:54.862Z,0
2017-03-31T00:40:16.154Z,0
2017-03-31T00:41:38.376Z,0
2017-03-31T00:43:00.456Z,0
2017-03-31T00:44:21.637Z,0
2017-03-31T00:45:44.096Z,0
2017-03-31T00:47:05.935Z,0
2017-03-31T00:48:28.116Z,0
2017-03-31T00:49:49.974Z,0
2017-03-31T00:51:11.483Z,0
2017-03-31T00:52:33.643Z,0
2017-03-31T00:53:55.717Z,0
2017-03-31T00:55:17.594Z,0
2017-03-31T00:56:39.098Z,0
2017-03-31T00:58:01.244Z,0
2017-03-31T00:59:23.364Z,0
2017-03-31T01:00:45.184Z,0
2017-03-31T01:02:07.648Z,0
2017-03-31T01:03:29.537Z,0
2017-03-31T01:04:51.710Z,0
2017-03-31T01:06:14.155Z,0
2017-03-31T01:07:35.986Z,0
2017-03-31T01:08:58.119Z,0
2017-03-31T01:10:19.897Z,0
2017-03-31T01:11:41.754Z,0
2017-03-31T01:13:03.969Z,0
2017-03-31T01:14:25.466Z,0
2017-03-31T01:15:47.257Z,0
2017-03-31T01:17:09.248Z,0
2017-03-31T01:18:31.379Z,0
2017-03-31T01:19:53.577Z,0
2017-03-31T01:21:16.300Z,0
2017-03-31T01:22:38.458Z,0
2017-03-31T01:24:00.396Z,0
2017-03-31T01:25:22.527Z,0
2017-03-31T01:26:44.893Z,0
2017-03-31T01:28:06.717Z,0
2017-03-31T01:29:28.238Z,0
2017-03-31T01:30:50.056Z,0
2017-03-31T01:32:12.205Z,0
2017-03-31T01:33:34.077Z,0
2017-03-31T01:34:56.234Z,0
2017-03-31T01:36:17.746Z,0
2017-03-31T01:37:40.217Z,0
2017-03-31T01:39:01.720Z,0
2017-03-31T01:40:23.535Z,0
2017-03-31T01:41:45.360Z,0
2017-03-31T01:43:07.170Z,0
2017-03-31T01:44:28.764Z,0
2017-03-31T01:45:51.247Z,0
2017-03-31T01:47:13.396Z,0
2017-03-31T01:48:35.855Z,0
2017-03-31T01:49:57.033Z,0
2017-03-31T01:51:18.230Z,0
2017-03-31T01:52:40.815Z,0
2017-03-31T01:54:03.554Z,0
2017-03-31T01:55:25.425Z,0
2017-03-31T01:56:47.626Z,0
2017-03-31T01:58:09.843Z,0
2017-03-31T01:59:32.225Z,0
2017-03-31T02:00:53.784Z,0
2017-03-31T02:02:15.939Z,0
2017-03-31T02:03:37.524Z,0
2017-03-31T02:04:59.663Z,0
2017-03-31T02:06:21.826Z,0
2017-03-31T02:07:44.312Z,0
2017-03-31T02:09:06.897Z,0
2017-03-31T02:10:29.279Z,0
2017-03-31T02:11:51.146Z,0
2017-03-31T02:13:12.966Z,0
2017-03-31T02:14:35.123Z,0
2017-03-31T02:15:57.587Z,0
2017-03-31T02:17:19.783Z,0
2017-03-31T02:18:41.923Z,0
2017-03-31T02:20:03.438Z,0
2017-03-31T02:21:25.242Z,0
2017-03-31T02:22:46.432Z,0
2017-03-31T02:24:08.245Z,0
2017-03-31T02:25:30.064Z,0
2017-03-31T02:26:51.954Z,0
2017-03-31T02:28:13.768Z,0
2017-03-31T02:29:35.919Z,0
2017-03-31T02:30:57.759Z,0
2017-03-31T02:32:19.874Z,0
2017-03-31T02:33:41.839Z,0
2017-03-31T02:35:04.019Z,0
2017-03-31T02:36:26.015Z,0
2017-03-31T02:37:48.346Z,0
2017-03-31T02:39:10.217Z,0
2017-03-31T02:40:32.040Z,0
2017-03-31T02:41:54.176Z,0
2017-03-31T02:43:15.318Z,0
2017-03-31T02:44:37.152Z,0
2017-03-31T02:45:59.291Z,0
2017-03-31T02:47:21.738Z,0
2017-03-31T02:48:43.874Z,0
2017-03-31T02:50:05.380Z,0
2017-03-31T02:51:27.584Z,0
2017-03-31T02:52:49.722Z,0
2017-03-31T02:54:11.776Z,0
2017-03-31T02:55:33.926Z,0
2017-03-31T02:56:55.759Z,0
2017-03-31T02:58:17.586Z,0
2017-03-31T02:59:39.696Z,0
2017-03-31T03:01:01.827Z,0
2017-03-31T03:02:23.653Z,0
2017-03-31T03:03:44.861Z,0
2017-03-31T03:05:06.680Z,0
2017-03-31T03:06:28.202Z,0
2017-03-31T03:07:50.333Z,0
2017-03-31T03:09:12.792Z,0
2017-03-31T03:10:34.591Z,0
2017-03-31T03:11:56.472Z,0
2017-03-31T03:13:18.600Z,0
2017-03-31T03:14:41.075Z,0
2017-03-31T03:16:03.661Z,0
2017-03-31T03:17:25.796Z,0
2017-03-31T03:18:47.937Z,0
2017-03-31T03:20:10.594Z,0
2017-03-31T03:21:33.073Z,0
2017-03-31T03:22:54.585Z,0
2017-03-31T03:24:16.406Z,0
2017-03-31T03:25:38.226Z,0
2017-03-31T03:26:59.806Z,0
2017-03-31T03:28:22.261Z,0
2017-03-31T03:29:44.109Z,0
2017-03-31T03:31:05.966Z,0
2017-03-31T03:32:28.105Z,0
2017-03-31T03:33:50.557Z,0
2017-03-31T03:35:11.770Z,0
2017-03-31T03:36:34.016Z,0
2017-03-31T03:37:56.391Z,0
2017-03-31T03:39:18.217Z,0
2017-03-31T03:40:40.406Z,0
2017-03-31T03:42:02.282Z,0
2017-03-31T03:43:24.045Z,0
2017-03-31T03:44:45.875Z,0
2017-03-31T03:46:07.447Z,0
2017-03-31T03:47:29.268Z,0
2017-03-31T03:48:51.754Z,0
2017-03-31T03:50:13.592Z,0
2017-03-31T03:51:35.732Z,0
2017-03-31T03:52:56.925Z,0
2017-03-31T03:54:19.356Z,0
2017-03-31T03:55:41.285Z,0
2017-03-31T03:57:02.636Z,0
2017-03-31T03:58:24.470Z,0
2017-03-31T03:59:46.849Z,0
2017-03-31T04:01:08.661Z,0
2017-03-31T04:02:30.807Z,0
2017-03-31T04:03:52.697Z,0
2017-03-31T04:05:14.785Z,0
2017-03-31T04:06:36.612Z,0
2017-03-31T04:07:58.429Z,0
2017-03-31T04:09:20.557Z,0
2017-03-31T04:10:43.095Z,0
2017-03-31T04:12:05.036Z,0
2017-03-31T04:13:26.557Z,0
2017-03-31T04:14:48.679Z,0
2017-03-31T04:16:10.244Z,0
2017-03-31T04:17:32.428Z,0
2017-03-31T04:18:54.882Z,0
2017-03-31T04:20:17.076Z,0
2017-03-31T04:21:39.154Z,0
2017-03-31T04:23:01.302Z,0
2017-03-31T04:24:23.433Z,0
2017-03-31T04:25:45.277Z,0
2017-03-31T04:27:07.455Z,4
2017-03-31T04:28:29.395Z,4
2017-03-31T04:29:50.706Z,0
2017-03-31T04:31:12.546Z,4
2017-03-31T04:32:34.684Z,8
2017-03-31T04:33:56.820Z,8
2017-03-31T04:35:18.753Z,8
2017-03-31T04:36:40.728Z,12
2017-03-31T04:38:02.809Z,12
2017-03-31T04:39:24.336Z,16
2017-03-31T04:40:45.836Z,20
2017-03-31T04:42:07.995Z,28
2017-03-31T04:43:30.493Z,32
2017-03-31T04:44:52.331Z,40
2017-03-31T04:46:13.816Z,48
2017-03-31T04:47:36.391Z,56
2017-03-31T04:48:58.622Z,72
2017-03-31T04:50:20.764Z,84
2017-03-31T04:51:42.272Z,100
2017-03-31T04:53:04.138Z,116
2017-03-31T04:54:25.975Z,140
2017-03-31T04:55:47.946Z,156
2017-03-31T04:57:09.774Z,180
2017-03-31T04:58:31.915Z,200
2017-03-31T04:59:54.358Z,224
2017-03-31T05:01:16.176Z,252
2017-03-31T05:02:38.324Z,284
2017-03-31T05:04:00.472Z,316
2017-03-31T05:05:22.564Z,360
2017-03-31T05:06:44.706Z,408
2017-03-31T05:08:06.860Z,460
2017-03-31T05:09:29.242Z,524
2017-03-31T05:10:52.355Z,600
2017-03-31T05:12:14.244Z,680
2017-03-31T05:13:36.085Z,764
2017-03-31T05:14:57.893Z,848
2017-03-31T05:16:20.347Z,936
2017-03-31T05:17:42.815Z,1032
2017-03-31T05:19:04.964Z,1128
2017-03-31T05:20:26.855Z,1228
2017-03-31T05:21:48.627Z,1332
2017-03-31T05:23:10.462Z,1432
2017-03-31T05:24:32.926Z,1536
2017-03-31T05:25:55.080Z,1640
2017-03-31T05:27:16.537Z,1744
2017-03-31T05:28:38.675Z,1852
2017-03-31T05:30:00.244Z,1964
2017-03-31T05:31:22.058Z,2076
2017-03-31T05:32:44.274Z,2184
2017-03-31T05:34:06.435Z,2292
2017-03-31T05:35:28.587Z,2408
2017-03-31T05:36:50.111Z,2528
2017-03-31T05:38:12.507Z,2652
2017-03-31T05:39:34.034Z,2784
2017-03-31T05:40:56.698Z,2944
2017-03-31T05:42:18.526Z,3140
2017-03-31T05:43:40.340Z,3360
2017-03-31T05:45:02.469Z,3604
2017-03-31T05:46:24.697Z,3828
2017-03-31T05:47:46.843Z,4040
2017-03-31T05:49:08.653Z,4304
2017-03-31T05:50:30.486Z,4536
2017-03-31T05:51:52.004Z,4684
2017-03-31T05:53:13.852Z,4888
2017-03-31T05:54:36.588Z,5128
2017-03-31T05:55:58.775Z,5420
2017-03-31T05:57:20.655Z,5688
2017-03-31T05:58:42.816Z,6136
2017-03-31T06:00:05.603Z,6704
2017-03-31T06:01:27.842Z,7240
2017-03-31T06:02:49.076Z,7704
2017-03-31T06:04:10.995Z,8304
2017-03-31T06:05:32.888Z,9100
2017-03-31T06:06:55.119Z,10436
2017-03-31T06:08:17.273Z,11084
2017-03-31T06:09:38.765Z,13760
2017-03-31T06:11:00.213Z,13760
2017-03-31T06:12:22.051Z,13856
2017-03-31T06:13:43.869Z,15104
2017-03-31T06:15:05.447Z,15136
2017-03-31T06:16:28.284Z,14720
2017-03-31T06:17:50.532Z,15520
2017-03-31T06:19:12.375Z,15136
2017-03-31T06:20:34.534Z,14784
2017-03-31T06:21:56.936Z,15552
2017-03-31T06:23:18.768Z,14944
2017-03-31T06:24:40.307Z,15872
2017-03-31T06:26:02.535Z,16640
2017-03-31T06:27:24.985Z,13220
2017-03-31T06:28:46.938Z,13416
2017-03-31T06:30:08.778Z,14000
2017-03-31T06:31:30.296Z,14112
2017-03-31T06:32:53.053Z,14216
2017-03-31T06:34:14.884Z,15296
2017-03-31T06:35:36.394Z,13796
2017-03-31T06:36:58.907Z,13940
2017-03-31T06:38:21.007Z,14676
2017-03-31T06:39:43.471Z,13488
2017-03-31T06:41:05.316Z,12392
2017-03-31T06:42:27.555Z,12592
2017-03-31T06:43:49.944Z,12340
2017-03-31T06:45:12.067Z,11612
2017-03-31T06:46:33.943Z,12596
2017-03-31T06:47:55.796Z,12496
2017-03-31T06:49:17.918Z,11988
2017-03-31T06:50:40.451Z,12464
2017-03-31T06:52:02.615Z,11872
2017-03-31T06:53:24.793Z,11760
2017-03-31T06:54:47.496Z,11540
2017-03-31T06:56:09.357Z,11440
2017-03-31T06:57:31.840Z,10396
2017-03-31T06:58:53.986Z,9972
2017-03-31T07:00:16.399Z,9776
2017-03-31T07:01:37.908Z,11132
2017-03-31T07:02:59.738Z,10836
2017-03-31T07:04:22.206Z,13588
2017-03-31T07:05:44.297Z,13800
2017-03-31T07:07:05.804Z,12192
2017-03-31T07:08:27.630Z,11764
2017-03-31T07:09:49.462Z,11008
2017-03-31T07:11:12.229Z,10456
2017-03-31T07:12:34.409Z,10272
2017-03-31T07:13:56.246Z,10584
2017-03-31T07:15:18.725Z,10836
2017-03-31T07:16:41.481Z,10748
2017-03-31T07:18:03.322Z,10652
2017-03-31T07:19:25.452Z,10636
2017-03-31T07:20:46.694Z,10936
2017-03-31T07:22:08.771Z,11244
2017-03-31T07:23:30.618Z,11216
2017-03-31T07:24:52.456Z,11020
2017-03-31T07:26:14.333Z,10376
2017-03-31T07:27:36.770Z,10204
2017-03-31T07:28:58.923Z,11140
2017-03-31T07:30:21.096Z,11184
2017-03-31T07:31:42.699Z,11148
2017-03-31T07:33:05.504Z,11480
2017-03-31T07:34:26.707Z,11264
2017-03-31T07:35:48.237Z,11456
2017-03-31T07:37:10.459Z,11148
2017-03-31T07:38:32.541Z,10804
2017-03-31T07:39:54.996Z,10600
2017-03-31T07:41:17.453Z,10580
2017-03-31T07:42:39.303Z,10556
2017-03-31T07:44:01.514Z,10220
2017-03-31T07:45:23.028Z,10452
2017-03-31T07:46:45.047Z,10248
2017-03-31T07:48:06.891Z,10108
2017-03-31T07:49:29.018Z,9924
2017-03-31T07:50:51.173Z,9740
2017-03-31T07:52:13.024Z,9728
2017-03-31T07:53:35.159Z,9760
2017-03-31T07:54:57.467Z,9680
2017-03-31T07:56:19.101Z,9668
2017-03-31T07:57:41.256Z,9668
2017-03-31T07:59:03.417Z,9704
2017-03-31T08:00:25.968Z,9744
2017-03-31T08:01:48.447Z,9764
2017-03-31T08:03:10.949Z,9852
2017-03-31T08:04:32.784Z,9884
2017-03-31T08:05:55.246Z,9888
2017-03-31T08:07:17.728Z,9852
2017-03-31T08:08:39.900Z,9880
2017-03-31T08:10:02.161Z,9924
2017-03-31T08:11:23.995Z,9944
2017-03-31T08:12:45.517Z,9940
2017-03-31T08:14:07.670Z,9936
2017-03-31T08:15:29.850Z,9988
2017-03-31T08:16:52.016Z,10048
2017-03-31T08:18:13.632Z,10148
2017-03-31T08:19:35.477Z,10288
2017-03-31T08:20:57.355Z,10396
2017-03-31T08:22:19.822Z,10560
2017-03-31T08:23:41.977Z,10660
2017-03-31T08:25:03.635Z,10800
2017-03-31T08:26:26.231Z,10996
2017-03-31T08:27:48.487Z,11188
2017-03-31T08:29:09.994Z,11336
2017-03-31T08:30:32.459Z,11464
2017-03-31T08:31:54.315Z,11648
2017-03-31T08:33:16.274Z,11856
2017-03-31T08:34:37.815Z,12064
2017-03-31T08:35:59.388Z,12240
2017-03-31T08:37:21.596Z,12452
2017-03-31T08:38:44.071Z,12668
2017-03-31T08:40:05.916Z,12828
2017-03-31T08:41:28.446Z,12996
2017-03-31T08:42:49.732Z,13304
2017-03-31T08:44:11.972Z,13660
2017-03-31T08:45:34.215Z,14020
2017-03-31T08:46:56.057Z,14396
2017-03-31T08:48:17.888Z,14644
2017-03-31T08:49:39.835Z,14816
2017-03-31T08:51:01.044Z,14948
2017-03-31T08:52:23.517Z,14968
2017-03-31T08:53:44.786Z,14836
2017-03-31T08:55:07.229Z,14588
2017-03-31T08:56:29.075Z,14300
2017-03-31T08:57:51.232Z,14144
2017-03-31T08:59:12.788Z,14056
2017-03-31T09:00:34.645Z,13880
2017-03-31T09:01:56.797Z,13752
2017-03-31T09:03:18.945Z,13684
2017-03-31T09:04:40.435Z,13644
2017-03-31T09:06:02.837Z,13664
2017-03-31T09:07:24.668Z,13656
2017-03-31T09:08:47.247Z,13808
2017-03-31T09:10:09.083Z,13916
2017-03-31T09:11:31.580Z,14080
2017-03-31T09:12:53.742Z,14056
2017-03-31T09:14:15.595Z,13812
2017-03-31T09:15:37.445Z,13464
2017-03-31T09:16:59.837Z,13104
2017-03-31T09:18:21.369Z,12816
2017-03-31T09:19:43.207Z,12700
2017-03-31T09:21:04.412Z,12420
2017-03-31T09:22:26.820Z,12120
2017-03-31T09:23:49.430Z,11816
2017-03-31T09:25:11.877Z,11832
2017-03-31T09:26:34.438Z,11788
2017-03-31T09:27:57.196Z,12008
2017-03-31T09:29:19.023Z,12052
2017-03-31T09:30:41.200Z,11984
2017-03-31T09:32:03.163Z,11848
2017-03-31T09:33:25.266Z,11840
2017-03-31T09:34:47.114Z,11892
2017-03-31T09:36:09.278Z,11852
2017-03-31T09:37:31.530Z,11896
2017-03-31T09:38:54.056Z,12024
2017-03-31T09:40:16.528Z,12144
2017-03-31T09:41:39.024Z,12080
2017-03-31T09:43:01.267Z,12028
2017-03-31T09:44:23.358Z,12072
2017-03-31T09:45:45.185Z,12100
2017-03-31T09:47:07.319Z,12164
2017-03-31T09:48:29.159Z,12324
2017-03-31T09:49:51.649Z,12488
2017-03-31T09:51:13.494Z,12592
2017-03-31T09:52:35.649Z,12700
2017-03-31T09:53:57.571Z,12776
2017-03-31T09:55:20.020Z,12796
2017-03-31T09:56:42.185Z,12776
2017-03-31T09:58:04.445Z,12644
2017-03-31T09:59:26.286Z,12548
2017-03-31T10:00:48.503Z,12552
2017-03-31T10:02:10.741Z,12584
2017-03-31T10:03:32.258Z,12548
2017-03-31T10:04:53.786Z,12432
2017-03-31T10:06:15.873Z,12240
2017-03-31T10:07:37.452Z,12120
2017-03-31T10:08:59.276Z,12128
2017-03-31T10:10:21.151Z,12120
2017-03-31T10:11:43.586Z,12152
2017-03-31T10:13:05.764Z,12088
2017-03-31T10:14:28.222Z,12088
2017-03-31T10:15:50.394Z,12096
2017-03-31T10:17:12.264Z,12140
2017-03-31T10:18:34.178Z,12288
2017-03-31T10:19:56.725Z,12348
2017-03-31T10:21:18.593Z,12300
2017-03-31T10:22:41.053Z,12284
2017-03-31T10:24:03.254Z,12336
2017-03-31T10:25:25.411Z,12544
2017-03-31T10:26:47.363Z,12980
2017-03-31T10:28:09.786Z,13296
2017-03-31T10:29:31.928Z,13656
2017-03-31T10:30:53.763Z,14016
2017-03-31T10:32:15.702Z,14036
2017-03-31T10:33:38.229Z,13884
2017-03-31T10:35:00.739Z,13608
2017-03-31T10:36:22.617Z,13200
2017-03-31T10:37:44.756Z,12836
2017-03-31T10:39:06.703Z,12592
2017-03-31T10:40:28.425Z,12500
2017-03-31T10:41:50.916Z,12516
2017-03-31T10:43:12.905Z,12712
2017-03-31T10:44:35.043Z,13244
2017-03-31T10:45:56.867Z,14068
2017-03-31T10:47:18.374Z,14712
2017-03-31T10:48:40.223Z,15068
2017-03-31T10:50:02.005Z,15008
2017-03-31T10:51:23.832Z,14612
2017-03-31T10:52:45.670Z,14004
2017-03-31T10:54:07.270Z,13532
2017-03-31T10:55:29.728Z,13208
2017-03-31T10:56:51.992Z,13112
2017-03-31T10:58:14.256Z,13100
2017-03-31T10:59:36.381Z,13308
2017-03-31T11:00:58.771Z,13380
2017-03-31T11:02:20.911Z,13484
2017-03-31T11:03:42.756Z,13512
2017-03-31T11:05:04.896Z,13656
2017-03-31T11:06:27.323Z,14052
2017-03-31T11:07:49.485Z,14692
2017-03-31T11:09:11.349Z,15192
2017-03-31T11:10:33.528Z,15588
2017-03-31T11:11:55.687Z,16080
2017-03-31T11:13:49.867Z,15796
2017-03-31T11:15:12.387Z,15432
2017-03-31T11:16:34.566Z,15236
2017-03-31T11:17:57.362Z,14716
2017-03-31T11:19:19.530Z,14312
2017-03-31T11:20:41.369Z,14012
2017-03-31T11:22:04.156Z,13812
2017-03-31T11:23:26.346Z,13532
2017-03-31T11:24:48.616Z,13120
2017-03-31T11:26:10.787Z,12596
2017-03-31T11:27:32.885Z,12144
2017-03-31T11:28:55.042Z,11872
2017-03-31T11:30:17.247Z,11808
2017-03-31T11:31:39.888Z,11864
2017-03-31T11:33:03.986Z,11920
2017-03-31T11:34:25.971Z,12080
2017-03-31T11:35:48.471Z,12304
2017-03-31T11:37:10.814Z,12272
2017-03-31T11:38:33.616Z,12260
2017-03-31T11:39:55.773Z,12388
2017-03-31T11:41:17.604Z,12472
2017-03-31T11:42:39.477Z,12296
2017-03-31T11:44:01.885Z,12068
2017-03-31T11:45:23.727Z,11980
2017-03-31T11:46:46.282Z,11876
2017-03-31T11:48:08.061Z,11784
2017-03-31T11:49:30.624Z,11616
2017-03-31T11:50:52.477Z,11552
2017-03-31T11:52:14.320Z,11936
2017-03-31T11:53:36.466Z,12476
2017-03-31T11:54:58.922Z,13136
2017-03-31T11:56:21.062Z,13544
2017-03-31T11:57:42.927Z,13916
2017-03-31T11:59:04.509Z,14056
2017-03-31T12:00:26.106Z,14700
2017-03-31T12:01:47.961Z,14756
2017-03-31T12:03:10.447Z,14432
2017-03-31T12:04:32.484Z,14132
2017-03-31T12:05:54.657Z,13896
2017-03-31T12:07:16.499Z,13312
2017-03-31T12:08:38.667Z,12544
2017-03-31T12:10:00.587Z,12120
2017-03-31T12:11:23.197Z,11784
2017-03-31T12:12:45.703Z,11624
2017-03-31T12:14:08.194Z,11644
2017-03-31T12:15:30.472Z,11624
2017-03-31T12:16:53.242Z,11880
2017-03-31T12:18:15.412Z,12144
2017-03-31T12:19:37.265Z,12096
2017-03-31T12:20:59.434Z,12252
2017-03-31T12:22:22.158Z,12524
2017-03-31T12:23:44.035Z,12668
2017-03-31T12:25:06.247Z,12424
2017-03-31T12:26:28.746Z,12172
2017-03-31T12:27:50.893Z,12168
2017-03-31T12:29:12.426Z,12268
2017-03-31T12:30:34.612Z,11896
2017-03-31T12:31:56.803Z,11628
2017-03-31T12:33:19.803Z,11264
2017-03-31T12:34:40.673Z,11456
2017-03-31T12:36:02.570Z,11004
2017-03-31T12:37:24.440Z,10284
2017-03-31T12:38:48.151Z,9844
2017-03-31T12:40:11.457Z,9268
2017-03-31T12:41:35.029Z,8980
2017-03-31T12:42:58.594Z,9036
2017-03-31T12:44:21.718Z,9308
2017-03-31T12:45:43.603Z,9520
2017-03-31T12:47:05.738Z,9820
2017-03-31T12:48:27.278Z,9944
2017-03-31T12:49:49.405Z,9988
2017-03-31T12:51:11.329Z,9556
2017-03-31T12:52:33.486Z,9032
2017-03-31T12:53:56.015Z,8420
2017-03-31T12:55:18.126Z,8196
2017-03-31T12:56:40.011Z,8136
2017-03-31T12:58:02.273Z,7784
2017-03-31T12:59:24.767Z,7544
2017-03-31T13:00:46.557Z,7336
2017-03-31T13:02:09.027Z,6896
2017-03-31T13:03:31.224Z,7016
2017-03-31T13:04:53.684Z,7084
2017-03-31T13:06:15.554Z,7016
2017-03-31T13:07:37.386Z,6864
2017-03-31T13:08:59.908Z,6836
2017-03-31T13:10:22.264Z,6848
2017-03-31T13:11:44.436Z,6872
2017-03-31T13:13:06.615Z,6860
2017-03-31T13:14:27.806Z,6820
2017-03-31T13:15:50.368Z,6764
2017-03-31T13:17:12.199Z,6688
2017-03-31T13:18:34.860Z,6756
2017-03-31T13:19:56.521Z,6740
2017-03-31T13:21:18.987Z,6468
2017-03-31T13:22:41.512Z,6300
2017-03-31T13:24:03.972Z,6380
2017-03-31T13:25:25.836Z,6704
2017-03-31T13:26:47.986Z,7100
2017-03-31T13:28:10.189Z,7548
2017-03-31T13:29:32.703Z,8048
2017-03-31T13:30:54.721Z,8508
2017-03-31T13:32:16.270Z,9004
2017-03-31T13:33:38.374Z,9540
2017-03-31T13:35:00.875Z,9936
2017-03-31T13:36:22.821Z,10200
2017-03-31T13:37:45.283Z,10264
2017-03-31T13:39:08.046Z,10332
2017-03-31T13:40:30.515Z,10488
2017-03-31T13:41:52.988Z,10720
2017-03-31T13:43:15.145Z,11012
2017-03-31T13:44:37.647Z,11196
2017-03-31T13:46:00.351Z,11280
2017-03-31T13:47:22.186Z,11212
2017-03-31T13:48:44.040Z,11316
2017-03-31T13:50:06.764Z,11352
2017-03-31T13:51:28.987Z,11200
2017-03-31T13:52:51.292Z,10920
2017-03-31T13:54:13.467Z,10388
2017-03-31T13:55:35.257Z,9856
2017-03-31T13:56:57.842Z,9444
2017-03-31T13:58:20.344Z,9128
2017-03-31T13:59:42.178Z,8876
2017-03-31T14:01:03.996Z,8728
2017-03-31T14:02:25.584Z,8568
2017-03-31T14:03:47.432Z,8524
2017-03-31T14:05:09.866Z,8476
2017-03-31T14:06:32.335Z,8376
2017-03-31T14:07:54.517Z,8280
2017-03-31T14:09:16.671Z,8176
2017-03-31T14:10:38.846Z,8056
2017-03-31T14:12:00.916Z,7912
2017-03-31T14:13:22.906Z,7760
2017-03-31T14:14:45.108Z,7704
2017-03-31T14:16:07.575Z,7676
2017-03-31T14:17:29.666Z,7636
2017-03-31T14:18:51.512Z,7576
2017-03-31T14:20:14.010Z,7552
2017-03-31T14:21:35.899Z,7436
2017-03-31T14:22:57.986Z,7324
2017-03-31T14:24:19.838Z,7212
2017-03-31T14:25:41.684Z,7144
2017-03-31T14:27:03.552Z,7128
2017-03-31T14:28:25.358Z,7192
2017-03-31T14:29:47.257Z,7208
2017-03-31T14:31:09.135Z,7260
2017-03-31T14:32:31.637Z,7164
2017-03-31T14:33:53.950Z,7084
2017-03-31T14:35:15.474Z,7068
2017-03-31T14:36:38.015Z,7000
2017-03-31T14:37:59.857Z,6988
2017-03-31T14:39:22.267Z,6916
2017-03-31T14:40:44.817Z,7100
2017-03-31T14:42:07.406Z,7204
2017-03-31T14:43:29.573Z,7372
2017-03-31T14:44:52.410Z,7476
2017-03-31T14:46:14.568Z,7676
2017-03-31T14:47:36.428Z,7884
2017-03-31T14:48:58.336Z,8008
2017-03-31T14:50:20.807Z,8016
2017-03-31T14:51:43.277Z,7968
2017-03-31T14:53:05.158Z,7888
2017-03-31T14:54:27.323Z,7824
2017-03-31T14:55:49.467Z,7732
2017-03-31T14:57:12.004Z,7736
2017-03-31T14:58:34.487Z,7708
2017-03-31T14:59:56.647Z,7640
2017-03-31T15:01:19.229Z,7540
2017-03-31T15:02:41.146Z,7416
2017-03-31T15:04:03.337Z,7236
2017-03-31T15:05:25.827Z,7172
2017-03-31T15:06:48.321Z,7116
2017-03-31T15:08:10.636Z,7036
2017-03-31T15:09:33.136Z,7008
2017-03-31T15:10:54.647Z,6964
2017-03-31T15:12:16.890Z,6788
2017-03-31T15:13:38.856Z,6720
2017-03-31T15:15:01.324Z,6736
2017-03-31T15:16:23.477Z,6776
2017-03-31T15:17:45.632Z,6672
2017-03-31T15:19:07.837Z,6468
2017-03-31T15:20:30.004Z,6296
2017-03-31T15:21:51.952Z,6264
2017-03-31T15:23:14.217Z,6220
2017-03-31T15:24:36.515Z,6224
2017-03-31T15:25:58.707Z,6224
2017-03-31T15:27:19.925Z,6308
2017-03-31T15:28:42.127Z,6424
2017-03-31T15:30:04.306Z,6444
2017-03-31T15:31:26.489Z,6408
2017-03-31T15:32:48.766Z,6312
2017-03-31T15:34:11.265Z,6188
2017-03-31T15:35:33.550Z,6116
2017-03-31T15:36:55.528Z,6052
2017-03-31T15:38:18.017Z,5932
2017-03-31T15:39:40.148Z,5776
2017-03-31T15:41:02.648Z,5664
2017-03-31T15:42:25.169Z,5608
2017-03-31T15:43:47.381Z,5592
2017-03-31T15:45:10.122Z,5616
2017-03-31T15:46:32.315Z,5708
2017-03-31T15:47:54.187Z,5800
2017-03-31T15:49:16.669Z,5976
2017-03-31T15:50:38.587Z,6188
2017-03-31T15:52:00.570Z,6472
2017-03-31T15:53:22.435Z,6624
2017-03-31T15:54:44.364Z,6716
2017-03-31T15:56:06.913Z,6872
2017-03-31T15:57:29.068Z,7008
2017-03-31T15:58:51.307Z,7096
2017-03-31T16:00:13.768Z,7080
2017-03-31T16:01:36.553Z,7132
2017-03-31T16:02:59.117Z,7196
2017-03-31T16:04:20.977Z,7120
2017-03-31T16:05:42.869Z,6936
2017-03-31T16:07:05.287Z,6820
2017-03-31T16:08:27.459Z,6800
2017-03-31T16:09:49.925Z,6664
2017-03-31T16:11:12.075Z,6540
2017-03-31T16:12:33.952Z,6424
2017-03-31T16:13:56.543Z,6308
2017-03-31T16:15:18.518Z,6132
2017-03-31T16:16:40.706Z,5900
2017-03-31T16:18:03.460Z,5736
2017-03-31T16:19:25.324Z,5556
2017-03-31T16:20:47.512Z,5488
2017-03-31T16:22:09.670Z,5488
2017-03-31T16:23:32.398Z,5524
2017-03-31T16:24:54.620Z,5648
2017-03-31T16:26:17.131Z,5764
2017-03-31T16:27:38.987Z,5816
2017-03-31T16:29:01.784Z,5888
2017-03-31T16:30:24.283Z,5848
2017-03-31T16:31:46.459Z,5764
2017-03-31T16:33:08.611Z,5588
2017-03-31T16:34:31.398Z,5248
2017-03-31T16:35:53.883Z,4924
2017-03-31T16:37:16.064Z,4844
2017-03-31T16:38:37.717Z,4764
2017-03-31T16:40:00.162Z,4568
2017-03-31T16:41:22.218Z,4380
2017-03-31T16:42:44.147Z,4272
2017-03-31T16:44:06.018Z,4112
2017-03-31T16:45:28.494Z,3980
2017-03-31T16:46:50.744Z,3816
2017-03-31T16:48:12.628Z,3648
2017-03-31T16:49:35.136Z,3548
2017-03-31T16:50:57.948Z,3460
2017-03-31T16:52:20.351Z,3376
2017-03-31T16:53:42.505Z,3272
2017-03-31T16:55:04.473Z,3156
2017-03-31T16:56:26.985Z,3028
2017-03-31T16:57:49.357Z,2940
2017-03-31T16:59:11.621Z,2904
2017-03-31T17:00:34.110Z,2852
2017-03-31T17:01:56.914Z,2772
2017-03-31T17:03:19.100Z,2684
2017-03-31T17:04:41.277Z,2608
2017-03-31T17:06:03.772Z,2548
2017-03-31T17:07:26.307Z,2508
2017-03-31T17:08:48.455Z,2492
2017-03-31T17:10:11.026Z,2476
2017-03-31T17:11:33.194Z,2464
2017-03-31T17:12:55.752Z,2444
2017-03-31T17:14:17.601Z,2356
2017-03-31T17:15:40.075Z,2228
2017-03-31T17:17:02.604Z,2088
2017-03-31T17:18:25.365Z,1960
2017-03-31T17:19:47.868Z,1848
2017-03-31T17:21:10.371Z,1768
2017-03-31T17:22:32.575Z,1708
2017-03-31T17:23:55.049Z,1676
2017-03-31T17:25:17.307Z,1608
2017-03-31T17:26:39.479Z,1512
2017-03-31T17:28:01.968Z,1408
2017-03-31T17:29:24.694Z,1312
2017-03-31T17:30:47.156Z,1208
2017-03-31T17:32:09.716Z,1140
2017-03-31T17:33:32.296Z,1056
2017-03-31T17:34:54.846Z,964
2017-03-31T17:36:17.470Z,924
2017-03-31T17:37:42.000Z,864
2017-03-31T17:39:05.554Z,796
2017-03-31T17:40:27.986Z,704
2017-03-31T17:41:50.159Z,640
2017-03-31T17:43:12.648Z,580
2017-03-31T17:44:35.142Z,524
2017-03-31T17:45:57.950Z,468
2017-03-31T17:47:20.376Z,420
2017-03-31T17:48:42.550Z,376
2017-03-31T17:50:04.750Z,336
2017-03-31T17:51:27.559Z,296
2017-03-31T17:52:50.038Z,264
2017-03-31T17:54:12.247Z,232
2017-03-31T17:55:34.791Z,208
2017-03-31T17:56:57.594Z,188
2017-03-31T17:58:19.746Z,164
2017-03-31T17:59:42.241Z,148
2017-03-31T18:01:04.144Z,128
2017-03-31T18:02:26.802Z,112
2017-03-31T18:03:48.356Z,96
2017-03-31T18:05:10.546Z,84
2017-03-31T18:06:32.727Z,68
2017-03-31T18:07:55.549Z,60
2017-03-31T18:09:17.767Z,48
2017-03-31T18:10:40.253Z,40
2017-03-31T18:12:02.455Z,32
2017-03-31T18:13:25.278Z,28
2017-03-31T18:14:47.780Z,20
2017-03-31T18:16:10.424Z,16
2017-03-31T18:18:04.926Z,12
2017-03-31T18:19:27.872Z,8
2017-03-31T18:20:50.486Z,8
2017-03-31T18:22:12.984Z,8
2017-03-31T18:23:35.565Z,8
2017-03-31T18:24:58.147Z,4
2017-03-31T18:26:20.649Z,0
2017-03-31T18:27:42.846Z,4
2017-03-31T18:29:05.278Z,4
2017-03-31T18:30:27.503Z,0
2017-03-31T18:31:49.692Z,0
2017-03-31T18:33:11.905Z,0
2017-03-31T18:34:34.433Z,0